sensor_id;sensor_type;location;lat;lon;timestamp;P1;durP1;ratioP1;P2;durP2;ratioP2
42702;SDS011;28341;52.064;4.920;2022-11-23T00:00:22;35.38;;;20.38;;
42702;SDS011;28341;52.064;4.920;2022-11-23T00:02:26;35.53;;;21.27;;
42702;SDS011;28341;52.064;4.920;2022-11-23T00:04:31;34.72;;;21.25;;
42702;SDS011;28341;52.064;4.920;2022-11-23T00:06:36;43.22;;;22.55;;
42702;SDS011;28341;52.064;4.920;2022-11-23T00:08:40;40.15;;;21.00;;
42702;SDS011;28341;52.064;4.920;2022-11-23T00:10:47;40.83;;;22.67;;
42702;SDS011;28341;52.064;4.920;2022-11-23T00:12:51;36.53;;;21.77;;
42702;SDS011;28341;52.064;4.920;2022-11-23T00:14:56;35.08;;;22.58;;
42702;SDS011;28341;52.064;4.920;2022-11-23T00:17:00;38.65;;;22.33;;
42702;SDS011;28341;52.064;4.920;2022-11-23T00:19:05;37.70;;;22.20;;
42702;SDS011;28341;52.064;4.920;2022-11-23T00:21:10;39.67;;;23.02;;
42702;SDS011;28341;52.064;4.920;2022-11-23T00:23:15;33.45;;;22.15;;
42702;SDS011;28341;52.064;4.920;2022-11-23T00:25:20;42.20;;;22.63;;
42702;SDS011;28341;52.064;4.920;2022-11-23T00:27:27;37.17;;;22.80;;
42702;SDS011;28341;52.064;4.920;2022-11-23T00:29:32;36.00;;;22.08;;
42702;SDS011;28341;52.064;4.920;2022-11-23T00:31:36;38.72;;;22.55;;
42702;SDS011;28341;52.064;4.920;2022-11-23T00:33:41;33.78;;;22.35;;
42702;SDS011;28341;52.064;4.920;2022-11-23T00:35:45;38.17;;;23.60;;
42702;SDS011;28341;52.064;4.920;2022-11-23T00:37:50;37.63;;;23.25;;
42702;SDS011;28341;52.064;4.920;2022-11-23T00:39:55;40.13;;;22.60;;
42702;SDS011;28341;52.064;4.920;2022-11-23T00:41:59;44.58;;;25.08;;
42702;SDS011;28341;52.064;4.920;2022-11-23T00:44:06;36.55;;;22.83;;
42702;SDS011;28341;52.064;4.920;2022-11-23T00:46:12;39.22;;;23.92;;
42702;SDS011;28341;52.064;4.920;2022-11-23T00:48:18;39.25;;;24.98;;
42702;SDS011;28341;52.064;4.920;2022-11-23T00:50:24;47.10;;;26.45;;
42702;SDS011;28341;52.064;4.920;2022-11-23T00:52:28;44.60;;;25.70;;
42702;SDS011;28341;52.064;4.920;2022-11-23T00:54:33;42.45;;;25.58;;
42702;SDS011;28341;52.064;4.920;2022-11-23T00:56:37;42.97;;;24.75;;
42702;SDS011;28341;52.064;4.920;2022-11-23T00:58:42;43.33;;;25.27;;
42702;SDS011;28341;52.064;4.920;2022-11-23T01:01:01;40.28;;;23.95;;
42702;SDS011;28341;52.064;4.920;2022-11-23T01:03:08;44.00;;;25.25;;
42702;SDS011;28341;52.064;4.920;2022-11-23T01:05:13;45.90;;;25.67;;
42702;SDS011;28341;52.064;4.920;2022-11-23T01:07:17;42.97;;;25.75;;
42702;SDS011;28341;52.064;4.920;2022-11-23T01:09:22;45.28;;;26.70;;
42702;SDS011;28341;52.064;4.920;2022-11-23T01:11:27;42.30;;;26.58;;
42702;SDS011;28341;52.064;4.920;2022-11-23T01:13:34;43.47;;;25.92;;
42702;SDS011;28341;52.064;4.920;2022-11-23T01:15:38;47.35;;;26.98;;
42702;SDS011;28341;52.064;4.920;2022-11-23T01:17:55;40.95;;;23.85;;
42702;SDS011;28341;52.064;4.920;2022-11-23T01:20:00;46.67;;;24.92;;
42702;SDS011;28341;52.064;4.920;2022-11-23T01:22:05;40.13;;;25.08;;
42702;SDS011;28341;52.064;4.920;2022-11-23T01:24:11;42.63;;;24.17;;
42702;SDS011;28341;52.064;4.920;2022-11-23T01:26:17;40.33;;;23.25;;
42702;SDS011;28341;52.064;4.920;2022-11-23T01:28:22;40.25;;;22.58;;
42702;SDS011;28341;52.064;4.920;2022-11-23T01:30:28;43.35;;;23.55;;
42702;SDS011;28341;52.064;4.920;2022-11-23T01:32:33;36.88;;;22.02;;
42702;SDS011;28341;52.064;4.920;2022-11-23T01:34:40;49.70;;;23.67;;
42702;SDS011;28341;52.064;4.920;2022-11-23T01:36:45;45.80;;;23.38;;
42702;SDS011;28341;52.064;4.920;2022-11-23T01:38:49;45.35;;;23.50;;
42702;SDS011;28341;52.064;4.920;2022-11-23T01:40:55;37.20;;;22.38;;
42702;SDS011;28341;52.064;4.920;2022-11-23T01:42:59;35.72;;;21.48;;
42702;SDS011;28341;52.064;4.920;2022-11-23T01:47:40;46.90;;;23.05;;
42702;SDS011;28341;52.064;4.920;2022-11-23T01:49:48;39.80;;;23.13;;
42702;SDS011;28341;52.064;4.920;2022-11-23T01:51:55;39.08;;;24.38;;
42702;SDS011;28341;52.064;4.920;2022-11-23T01:54:03;45.00;;;22.73;;
42702;SDS011;28341;52.064;4.920;2022-11-23T01:56:10;37.30;;;21.80;;
42702;SDS011;28341;52.064;4.920;2022-11-23T01:58:19;41.80;;;23.48;;
42702;SDS011;28341;52.064;4.920;2022-11-23T02:00:25;39.78;;;22.15;;
42702;SDS011;28341;52.064;4.920;2022-11-23T02:02:30;43.75;;;24.00;;
42702;SDS011;28341;52.064;4.920;2022-11-23T02:04:36;41.85;;;23.83;;
42702;SDS011;28341;52.064;4.920;2022-11-23T02:06:50;45.50;;;22.77;;
42702;SDS011;28341;52.064;4.920;2022-11-23T02:08:55;41.58;;;22.15;;
42702;SDS011;28341;52.064;4.920;2022-11-23T02:11:00;38.85;;;22.45;;
42702;SDS011;28341;52.064;4.920;2022-11-23T02:13:05;35.55;;;21.08;;
42702;SDS011;28341;52.064;4.920;2022-11-23T02:15:12;38.40;;;21.08;;
42702;SDS011;28341;52.064;4.920;2022-11-23T02:17:17;41.28;;;20.83;;
42702;SDS011;28341;52.064;4.920;2022-11-23T02:19:23;37.72;;;20.10;;
42702;SDS011;28341;52.064;4.920;2022-11-23T02:21:34;40.00;;;20.27;;
42702;SDS011;28341;52.064;4.920;2022-11-23T02:23:46;37.72;;;20.40;;
42702;SDS011;28341;52.064;4.920;2022-11-23T02:25:59;39.78;;;19.63;;
42702;SDS011;28341;52.064;4.920;2022-11-23T02:28:06;36.15;;;19.75;;
42702;SDS011;28341;52.064;4.920;2022-11-23T02:30:12;35.20;;;19.75;;
42702;SDS011;28341;52.064;4.920;2022-11-23T02:32:18;28.77;;;19.25;;
42702;SDS011;28341;52.064;4.920;2022-11-23T02:34:29;37.70;;;19.83;;
42702;SDS011;28341;52.064;4.920;2022-11-23T02:36:34;36.67;;;18.92;;
42702;SDS011;28341;52.064;4.920;2022-11-23T02:38:41;36.60;;;18.95;;
42702;SDS011;28341;52.064;4.920;2022-11-23T02:40:46;32.78;;;17.88;;
42702;SDS011;28341;52.064;4.920;2022-11-23T02:42:53;30.42;;;18.58;;
42702;SDS011;28341;52.064;4.920;2022-11-23T02:44:59;35.85;;;18.95;;
42702;SDS011;28341;52.064;4.920;2022-11-23T02:47:10;30.45;;;17.92;;
42702;SDS011;28341;52.064;4.920;2022-11-23T02:49:15;34.05;;;17.95;;
42702;SDS011;28341;52.064;4.920;2022-11-23T02:51:19;35.60;;;19.10;;
42702;SDS011;28341;52.064;4.920;2022-11-23T02:53:23;33.58;;;17.45;;
42702;SDS011;28341;52.064;4.920;2022-11-23T02:55:28;32.60;;;17.70;;
42702;SDS011;28341;52.064;4.920;2022-11-23T02:57:34;40.65;;;19.02;;
42702;SDS011;28341;52.064;4.920;2022-11-23T02:59:41;33.05;;;18.35;;
42702;SDS011;28341;52.064;4.920;2022-11-23T03:01:45;33.65;;;18.10;;
42702;SDS011;28341;52.064;4.920;2022-11-23T03:03:50;29.45;;;18.10;;
42702;SDS011;28341;52.064;4.920;2022-11-23T03:05:55;32.40;;;19.08;;
42702;SDS011;28341;52.064;4.920;2022-11-23T03:08:00;31.45;;;17.42;;
42702;SDS011;28341;52.064;4.920;2022-11-23T03:10:06;36.47;;;18.48;;
42702;SDS011;28341;52.064;4.920;2022-11-23T03:12:12;33.50;;;18.35;;
42702;SDS011;28341;52.064;4.920;2022-11-23T03:14:16;39.22;;;20.27;;
42702;SDS011;28341;52.064;4.920;2022-11-23T03:16:28;31.67;;;20.02;;
42702;SDS011;28341;52.064;4.920;2022-11-23T03:18:34;32.60;;;20.30;;
42702;SDS011;28341;52.064;4.920;2022-11-23T03:20:38;29.67;;;19.70;;
42702;SDS011;28341;52.064;4.920;2022-11-23T03:22:43;30.90;;;20.05;;
42702;SDS011;28341;52.064;4.920;2022-11-23T03:24:50;35.50;;;21.13;;
42702;SDS011;28341;52.064;4.920;2022-11-23T03:26:54;35.75;;;20.77;;
42702;SDS011;28341;52.064;4.920;2022-11-23T03:28:59;30.77;;;20.48;;
42702;SDS011;28341;52.064;4.920;2022-11-23T03:31:04;33.75;;;19.95;;
42702;SDS011;28341;52.064;4.920;2022-11-23T03:33:11;34.03;;;21.40;;
42702;SDS011;28341;52.064;4.920;2022-11-23T03:35:16;34.25;;;20.48;;
42702;SDS011;28341;52.064;4.920;2022-11-23T03:37:43;33.50;;;20.17;;
42702;SDS011;28341;52.064;4.920;2022-11-23T03:39:48;28.75;;;19.27;;
42702;SDS011;28341;52.064;4.920;2022-11-23T03:41:55;30.60;;;20.35;;
42702;SDS011;28341;52.064;4.920;2022-11-23T03:44:06;34.72;;;20.10;;
42702;SDS011;28341;52.064;4.920;2022-11-23T03:46:11;28.27;;;19.55;;
42702;SDS011;28341;52.064;4.920;2022-11-23T03:48:18;35.50;;;20.27;;
42702;SDS011;28341;52.064;4.920;2022-11-23T03:50:22;30.80;;;18.95;;
42702;SDS011;28341;52.064;4.920;2022-11-23T03:52:29;29.00;;;18.42;;
42702;SDS011;28341;52.064;4.920;2022-11-23T03:54:33;28.02;;;18.10;;
42702;SDS011;28341;52.064;4.920;2022-11-23T03:56:38;32.80;;;20.35;;
42702;SDS011;28341;52.064;4.920;2022-11-23T03:58:42;31.45;;;19.20;;
42702;SDS011;28341;52.064;4.920;2022-11-23T04:00:48;33.00;;;19.52;;
42702;SDS011;28341;52.064;4.920;2022-11-23T04:02:52;34.33;;;19.98;;
42702;SDS011;28341;52.064;4.920;2022-11-23T04:05:23;29.42;;;20.33;;
42702;SDS011;28341;52.064;4.920;2022-11-23T04:07:53;33.30;;;19.20;;
42702;SDS011;28341;52.064;4.920;2022-11-23T04:10:02;31.98;;;18.50;;
42702;SDS011;28341;52.064;4.920;2022-11-23T04:12:27;28.88;;;18.08;;
42702;SDS011;28341;52.064;4.920;2022-11-23T04:14:32;30.55;;;17.88;;
42702;SDS011;28341;52.064;4.920;2022-11-23T04:16:36;24.60;;;18.65;;
42702;SDS011;28341;52.064;4.920;2022-11-23T04:18:41;27.63;;;18.25;;
42702;SDS011;28341;52.064;4.920;2022-11-23T04:20:48;26.17;;;17.90;;
42702;SDS011;28341;52.064;4.920;2022-11-23T04:22:53;25.30;;;17.40;;
42702;SDS011;28341;52.064;4.920;2022-11-23T04:24:59;23.13;;;16.35;;
42702;SDS011;28341;52.064;4.920;2022-11-23T04:27:03;22.27;;;15.57;;
42702;SDS011;28341;52.064;4.920;2022-11-23T04:29:08;26.67;;;15.52;;
42702;SDS011;28341;52.064;4.920;2022-11-23T04:31:17;26.40;;;15.57;;
42702;SDS011;28341;52.064;4.920;2022-11-23T04:33:28;21.80;;;15.30;;
42702;SDS011;28341;52.064;4.920;2022-11-23T04:35:34;24.42;;;16.20;;
42702;SDS011;28341;52.064;4.920;2022-11-23T04:37:42;28.35;;;15.45;;
42702;SDS011;28341;52.064;4.920;2022-11-23T04:39:47;24.70;;;15.38;;
42702;SDS011;28341;52.064;4.920;2022-11-23T04:42:00;27.92;;;15.77;;
42702;SDS011;28341;52.064;4.920;2022-11-23T04:44:06;18.48;;;14.05;;
42702;SDS011;28341;52.064;4.920;2022-11-23T04:46:13;28.15;;;15.00;;
42702;SDS011;28341;52.064;4.920;2022-11-23T04:48:19;23.38;;;14.75;;
42702;SDS011;28341;52.064;4.920;2022-11-23T04:50:23;28.73;;;14.80;;
42702;SDS011;28341;52.064;4.920;2022-11-23T04:52:30;29.10;;;14.70;;
42702;SDS011;28341;52.064;4.920;2022-11-23T04:54:39;29.48;;;14.45;;
42702;SDS011;28341;52.064;4.920;2022-11-23T04:56:43;29.65;;;13.80;;
42702;SDS011;28341;52.064;4.920;2022-11-23T04:58:48;21.42;;;13.52;;
42702;SDS011;28341;52.064;4.920;2022-11-23T05:00:52;23.05;;;14.75;;
42702;SDS011;28341;52.064;4.920;2022-11-23T05:02:57;20.42;;;13.35;;
42702;SDS011;28341;52.064;4.920;2022-11-23T05:05:06;20.38;;;12.18;;
42702;SDS011;28341;52.064;4.920;2022-11-23T05:07:12;23.88;;;13.13;;
42702;SDS011;28341;52.064;4.920;2022-11-23T05:09:20;22.42;;;11.77;;
42702;SDS011;28341;52.064;4.920;2022-11-23T05:11:37;24.15;;;12.95;;
42702;SDS011;28341;52.064;4.920;2022-11-23T05:13:43;21.38;;;11.85;;
42702;SDS011;28341;52.064;4.920;2022-11-23T05:15:48;19.25;;;10.73;;
42702;SDS011;28341;52.064;4.920;2022-11-23T05:18:02;18.10;;;11.27;;
42702;SDS011;28341;52.064;4.920;2022-11-23T05:20:10;25.83;;;12.43;;
42702;SDS011;28341;52.064;4.920;2022-11-23T05:22:20;25.85;;;13.27;;
42702;SDS011;28341;52.064;4.920;2022-11-23T05:24:26;35.28;;;15.60;;
42702;SDS011;28341;52.064;4.920;2022-11-23T05:26:52;33.83;;;15.68;;
42702;SDS011;28341;52.064;4.920;2022-11-23T05:28:56;29.58;;;15.73;;
42702;SDS011;28341;52.064;4.920;2022-11-23T05:31:01;29.15;;;16.38;;
42702;SDS011;28341;52.064;4.920;2022-11-23T05:33:06;28.40;;;16.88;;
42702;SDS011;28341;52.064;4.920;2022-11-23T05:35:10;29.05;;;15.88;;
42702;SDS011;28341;52.064;4.920;2022-11-23T05:37:15;26.10;;;15.73;;
42702;SDS011;28341;52.064;4.920;2022-11-23T05:39:28;27.75;;;16.50;;
42702;SDS011;28341;52.064;4.920;2022-11-23T05:41:34;24.92;;;15.30;;
42702;SDS011;28341;52.064;4.920;2022-11-23T05:43:45;28.30;;;15.45;;
42702;SDS011;28341;52.064;4.920;2022-11-23T05:45:57;31.20;;;14.95;;
42702;SDS011;28341;52.064;4.920;2022-11-23T05:48:03;23.38;;;14.05;;
42702;SDS011;28341;52.064;4.920;2022-11-23T05:50:27;26.08;;;14.32;;
42702;SDS011;28341;52.064;4.920;2022-11-23T05:52:50;165.70;;;125.68;;
42702;SDS011;28341;52.064;4.920;2022-11-23T05:54:54;45.50;;;29.67;;
42702;SDS011;28341;52.064;4.920;2022-11-23T05:56:59;101.43;;;70.68;;
42702;SDS011;28341;52.064;4.920;2022-11-23T05:59:14;115.63;;;74.10;;
42702;SDS011;28341;52.064;4.920;2022-11-23T06:01:24;111.95;;;73.35;;
42702;SDS011;28341;52.064;4.920;2022-11-23T06:03:32;96.35;;;68.70;;
42702;SDS011;28341;52.064;4.920;2022-11-23T06:05:37;26.80;;;17.17;;
42702;SDS011;28341;52.064;4.920;2022-11-23T06:07:42;30.17;;;14.77;;
42702;SDS011;28341;52.064;4.920;2022-11-23T06:09:47;27.27;;;13.52;;
42702;SDS011;28341;52.064;4.920;2022-11-23T06:11:51;24.20;;;12.65;;
42702;SDS011;28341;52.064;4.920;2022-11-23T06:13:56;19.20;;;12.65;;
42702;SDS011;28341;52.064;4.920;2022-11-23T06:16:03;28.45;;;12.93;;
42702;SDS011;28341;52.064;4.920;2022-11-23T06:18:19;27.13;;;13.52;;
42702;SDS011;28341;52.064;4.920;2022-11-23T06:20:23;25.10;;;13.10;;
42702;SDS011;28341;52.064;4.920;2022-11-23T06:22:33;26.48;;;13.68;;
42702;SDS011;28341;52.064;4.920;2022-11-23T06:24:39;25.17;;;13.85;;
42702;SDS011;28341;52.064;4.920;2022-11-23T06:27:03;27.55;;;13.48;;
42702;SDS011;28341;52.064;4.920;2022-11-23T06:29:08;29.80;;;13.63;;
42702;SDS011;28341;52.064;4.920;2022-11-23T06:31:15;22.40;;;13.65;;
42702;SDS011;28341;52.064;4.920;2022-11-23T06:33:20;31.02;;;14.13;;
42702;SDS011;28341;52.064;4.920;2022-11-23T06:35:26;33.47;;;15.10;;
42702;SDS011;28341;52.064;4.920;2022-11-23T06:37:31;22.63;;;13.45;;
42702;SDS011;28341;52.064;4.920;2022-11-23T06:39:35;28.27;;;13.82;;
42702;SDS011;28341;52.064;4.920;2022-11-23T06:41:41;31.92;;;14.15;;
42702;SDS011;28341;52.064;4.920;2022-11-23T06:43:47;26.65;;;13.57;;
42702;SDS011;28341;52.064;4.920;2022-11-23T06:46:02;23.88;;;12.63;;
42702;SDS011;28341;52.064;4.920;2022-11-23T06:48:14;31.20;;;12.70;;
42702;SDS011;28341;52.064;4.920;2022-11-23T06:50:21;25.42;;;10.68;;
42702;SDS011;28341;52.064;4.920;2022-11-23T06:52:25;25.02;;;10.20;;
42702;SDS011;28341;52.064;4.920;2022-11-23T06:54:30;22.27;;;9.98;;
42702;SDS011;28341;52.064;4.920;2022-11-23T06:56:35;27.55;;;9.45;;
42702;SDS011;28341;52.064;4.920;2022-11-23T06:58:42;31.30;;;9.27;;
42702;SDS011;28341;52.064;4.920;2022-11-23T07:00:51;24.75;;;7.82;;
42702;SDS011;28341;52.064;4.920;2022-11-23T07:02:57;23.00;;;7.15;;
42702;SDS011;28341;52.064;4.920;2022-11-23T07:05:10;27.27;;;6.80;;
42702;SDS011;28341;52.064;4.920;2022-11-23T07:07:15;26.30;;;5.90;;
42702;SDS011;28341;52.064;4.920;2022-11-23T07:09:26;26.30;;;5.78;;
42702;SDS011;28341;52.064;4.920;2022-11-23T07:11:54;27.60;;;4.18;;
42702;SDS011;28341;52.064;4.920;2022-11-23T07:13:59;30.60;;;5.10;;
42702;SDS011;28341;52.064;4.920;2022-11-23T07:16:04;26.48;;;4.53;;
42702;SDS011;28341;52.064;4.920;2022-11-23T07:18:10;28.77;;;4.07;;
42702;SDS011;28341;52.064;4.920;2022-11-23T07:22:30;20.30;;;4.20;;
42702;SDS011;28341;52.064;4.920;2022-11-23T07:24:35;27.23;;;4.68;;
42702;SDS011;28341;52.064;4.920;2022-11-23T07:26:41;17.02;;;3.90;;
42702;SDS011;28341;52.064;4.920;2022-11-23T07:28:45;28.30;;;4.68;;
42702;SDS011;28341;52.064;4.920;2022-11-23T07:30:50;18.65;;;4.05;;
42702;SDS011;28341;52.064;4.920;2022-11-23T07:32:57;31.50;;;4.15;;
42702;SDS011;28341;52.064;4.920;2022-11-23T07:35:04;33.65;;;5.20;;
42702;SDS011;28341;52.064;4.920;2022-11-23T07:37:14;27.67;;;4.25;;
42702;SDS011;28341;52.064;4.920;2022-11-23T07:39:19;29.52;;;4.82;;
42702;SDS011;28341;52.064;4.920;2022-11-23T07:41:25;27.33;;;5.53;;
42702;SDS011;28341;52.064;4.920;2022-11-23T07:43:38;26.42;;;4.07;;
42702;SDS011;28341;52.064;4.920;2022-11-23T07:45:43;24.02;;;3.75;;
42702;SDS011;28341;52.064;4.920;2022-11-23T07:47:56;26.50;;;4.45;;
42702;SDS011;28341;52.064;4.920;2022-11-23T07:50:01;19.80;;;4.82;;
42702;SDS011;28341;52.064;4.920;2022-11-23T07:52:06;23.80;;;5.13;;
42702;SDS011;28341;52.064;4.920;2022-11-23T07:54:14;24.23;;;3.88;;
42702;SDS011;28341;52.064;4.920;2022-11-23T07:56:18;20.52;;;4.28;;
42702;SDS011;28341;52.064;4.920;2022-11-23T07:58:23;25.90;;;4.15;;
42702;SDS011;28341;52.064;4.920;2022-11-23T08:00:27;23.48;;;4.60;;
42702;SDS011;28341;52.064;4.920;2022-11-23T08:02:32;24.52;;;3.55;;
42702;SDS011;28341;52.064;4.920;2022-11-23T08:04:36;19.38;;;4.10;;
42702;SDS011;28341;52.064;4.920;2022-11-23T08:06:41;21.00;;;3.65;;
42702;SDS011;28341;52.064;4.920;2022-11-23T08:08:45;27.92;;;4.55;;
42702;SDS011;28341;52.064;4.920;2022-11-23T08:10:53;24.90;;;4.45;;
42702;SDS011;28341;52.064;4.920;2022-11-23T08:12:58;26.02;;;4.10;;
42702;SDS011;28341;52.064;4.920;2022-11-23T08:15:03;25.80;;;4.10;;
42702;SDS011;28341;52.064;4.920;2022-11-23T08:17:08;19.73;;;3.50;;
42702;SDS011;28341;52.064;4.920;2022-11-23T08:19:13;32.17;;;5.65;;
42702;SDS011;28341;52.064;4.920;2022-11-23T08:21:18;18.00;;;4.22;;
42702;SDS011;28341;52.064;4.920;2022-11-23T08:23:22;22.67;;;4.07;;
42702;SDS011;28341;52.064;4.920;2022-11-23T08:25:28;24.20;;;4.57;;
42702;SDS011;28341;52.064;4.920;2022-11-23T08:27:35;19.42;;;3.58;;
42702;SDS011;28341;52.064;4.920;2022-11-23T08:29:40;21.95;;;3.80;;
42702;SDS011;28341;52.064;4.920;2022-11-23T08:31:44;25.35;;;4.45;;
42702;SDS011;28341;52.064;4.920;2022-11-23T08:33:49;25.98;;;4.13;;
42702;SDS011;28341;52.064;4.920;2022-11-23T08:35:53;22.10;;;3.95;;
42702;SDS011;28341;52.064;4.920;2022-11-23T08:37:58;22.80;;;4.57;;
42702;SDS011;28341;52.064;4.920;2022-11-23T08:40:03;27.98;;;4.13;;
42702;SDS011;28341;52.064;4.920;2022-11-23T08:42:09;24.60;;;4.88;;
42702;SDS011;28341;52.064;4.920;2022-11-23T08:44:16;20.80;;;4.55;;
42702;SDS011;28341;52.064;4.920;2022-11-23T08:46:21;16.52;;;4.47;;
42702;SDS011;28341;52.064;4.920;2022-11-23T08:48:25;26.98;;;4.28;;
42702;SDS011;28341;52.064;4.920;2022-11-23T08:50:30;24.85;;;4.50;;
42702;SDS011;28341;52.064;4.920;2022-11-23T08:52:36;23.65;;;4.20;;
42702;SDS011;28341;52.064;4.920;2022-11-23T08:54:40;20.15;;;3.65;;
42702;SDS011;28341;52.064;4.920;2022-11-23T08:56:45;17.50;;;3.58;;
42702;SDS011;28341;52.064;4.920;2022-11-23T08:58:49;26.25;;;5.25;;
42702;SDS011;28341;52.064;4.920;2022-11-23T09:00:57;21.23;;;4.03;;
42702;SDS011;28341;52.064;4.920;2022-11-23T09:03:01;25.08;;;4.32;;
42702;SDS011;28341;52.064;4.920;2022-11-23T09:05:06;18.50;;;3.92;;
42702;SDS011;28341;52.064;4.920;2022-11-23T09:07:11;21.48;;;4.20;;
42702;SDS011;28341;52.064;4.920;2022-11-23T09:09:16;22.00;;;4.85;;
42702;SDS011;28341;52.064;4.920;2022-11-23T09:11:21;20.80;;;3.72;;
42702;SDS011;28341;52.064;4.920;2022-11-23T09:13:25;26.27;;;4.20;;
42702;SDS011;28341;52.064;4.920;2022-11-23T09:15:30;26.95;;;4.55;;
42702;SDS011;28341;52.064;4.920;2022-11-23T09:17:37;29.80;;;5.25;;
42702;SDS011;28341;52.064;4.920;2022-11-23T09:19:41;31.83;;;4.25;;
42702;SDS011;28341;52.064;4.920;2022-11-23T09:21:46;19.48;;;3.45;;
42702;SDS011;28341;52.064;4.920;2022-11-23T09:23:50;19.77;;;3.90;;
42702;SDS011;28341;52.064;4.920;2022-11-23T09:25:56;35.40;;;5.13;;
42702;SDS011;28341;52.064;4.920;2022-11-23T09:28:01;20.40;;;3.78;;
42702;SDS011;28341;52.064;4.920;2022-11-23T09:30:07;26.73;;;4.22;;
42702;SDS011;28341;52.064;4.920;2022-11-23T09:32:13;21.75;;;4.93;;
42702;SDS011;28341;52.064;4.920;2022-11-23T09:34:20;23.88;;;3.97;;
42702;SDS011;28341;52.064;4.920;2022-11-23T09:36:25;23.92;;;4.32;;
42702;SDS011;28341;52.064;4.920;2022-11-23T09:38:29;21.95;;;4.32;;
42702;SDS011;28341;52.064;4.920;2022-11-23T09:40:35;21.60;;;4.13;;
42702;SDS011;28341;52.064;4.920;2022-11-23T09:42:49;21.30;;;4.53;;
42702;SDS011;28341;52.064;4.920;2022-11-23T09:45:06;22.42;;;4.47;;
42702;SDS011;28341;52.064;4.920;2022-11-23T09:47:23;24.15;;;4.00;;
42702;SDS011;28341;52.064;4.920;2022-11-23T09:49:44;21.67;;;4.13;;
42702;SDS011;28341;52.064;4.920;2022-11-23T09:51:56;23.08;;;4.53;;
42702;SDS011;28341;52.064;4.920;2022-11-23T09:54:01;23.90;;;3.95;;
42702;SDS011;28341;52.064;4.920;2022-11-23T09:56:14;25.98;;;4.65;;
42702;SDS011;28341;52.064;4.920;2022-11-23T09:58:21;17.08;;;4.03;;
42702;SDS011;28341;52.064;4.920;2022-11-23T10:00:31;21.45;;;4.20;;
42702;SDS011;28341;52.064;4.920;2022-11-23T10:02:40;24.27;;;4.20;;
42702;SDS011;28341;52.064;4.920;2022-11-23T10:04:48;17.13;;;4.03;;
42702;SDS011;28341;52.064;4.920;2022-11-23T10:06:53;23.92;;;4.50;;
42702;SDS011;28341;52.064;4.920;2022-11-23T10:09:12;22.88;;;4.43;;
42702;SDS011;28341;52.064;4.920;2022-11-23T10:11:34;17.67;;;3.78;;
42702;SDS011;28341;52.064;4.920;2022-11-23T10:13:55;24.02;;;4.03;;
42702;SDS011;28341;52.064;4.920;2022-11-23T10:16:15;23.63;;;4.50;;
42702;SDS011;28341;52.064;4.920;2022-11-23T10:18:32;21.95;;;4.57;;
42702;SDS011;28341;52.064;4.920;2022-11-23T10:20:50;25.83;;;4.00;;
42702;SDS011;28341;52.064;4.920;2022-11-23T10:23:07;21.80;;;4.43;;
42702;SDS011;28341;52.064;4.920;2022-11-23T10:25:19;19.02;;;3.85;;
42702;SDS011;28341;52.064;4.920;2022-11-23T10:27:27;30.38;;;4.50;;
42702;SDS011;28341;52.064;4.920;2022-11-23T10:29:33;21.38;;;3.70;;
42702;SDS011;28341;52.064;4.920;2022-11-23T10:31:39;20.13;;;3.88;;
42702;SDS011;28341;52.064;4.920;2022-11-23T10:33:53;25.98;;;4.50;;
42702;SDS011;28341;52.064;4.920;2022-11-23T10:36:03;26.92;;;3.95;;
42702;SDS011;28341;52.064;4.920;2022-11-23T10:38:09;20.33;;;4.63;;
42702;SDS011;28341;52.064;4.920;2022-11-23T10:40:15;18.98;;;3.47;;
42702;SDS011;28341;52.064;4.920;2022-11-23T10:42:28;23.77;;;4.15;;
42702;SDS011;28341;52.064;4.920;2022-11-23T10:44:36;25.05;;;4.63;;
42702;SDS011;28341;52.064;4.920;2022-11-23T10:46:42;21.60;;;4.18;;
42702;SDS011;28341;52.064;4.920;2022-11-23T10:48:47;21.35;;;4.47;;
42702;SDS011;28341;52.064;4.920;2022-11-23T10:50:51;21.60;;;4.22;;
42702;SDS011;28341;52.064;4.920;2022-11-23T10:52:59;18.45;;;3.22;;
42702;SDS011;28341;52.064;4.920;2022-11-23T10:55:15;15.85;;;3.47;;
42702;SDS011;28341;52.064;4.920;2022-11-23T10:57:26;20.70;;;3.65;;
42702;SDS011;28341;52.064;4.920;2022-11-23T10:59:36;16.50;;;3.53;;
42702;SDS011;28341;52.064;4.920;2022-11-23T11:01:41;18.52;;;4.30;;
42702;SDS011;28341;52.064;4.920;2022-11-23T11:04:03;13.48;;;3.38;;
42702;SDS011;28341;52.064;4.920;2022-11-23T11:06:08;18.10;;;4.45;;
42702;SDS011;28341;52.064;4.920;2022-11-23T11:08:16;15.40;;;4.10;;
42702;SDS011;28341;52.064;4.920;2022-11-23T11:10:32;18.67;;;4.80;;
42702;SDS011;28341;52.064;4.920;2022-11-23T11:12:49;15.18;;;4.18;;
42702;SDS011;28341;52.064;4.920;2022-11-23T11:14:58;17.58;;;4.63;;
42702;SDS011;28341;52.064;4.920;2022-11-23T11:17:09;25.25;;;5.45;;
42702;SDS011;28341;52.064;4.920;2022-11-23T11:19:29;18.10;;;4.75;;
42702;SDS011;28341;52.064;4.920;2022-11-23T11:21:35;16.40;;;4.18;;
42702;SDS011;28341;52.064;4.920;2022-11-23T11:23:49;18.13;;;3.97;;
42702;SDS011;28341;52.064;4.920;2022-11-23T11:28:23;16.50;;;3.50;;
42702;SDS011;28341;52.064;4.920;2022-11-23T11:30:37;15.40;;;3.03;;
42702;SDS011;28341;52.064;4.920;2022-11-23T11:32:48;12.60;;;4.45;;
42702;SDS011;28341;52.064;4.920;2022-11-23T11:34:59;22.23;;;4.38;;
42702;SDS011;28341;52.064;4.920;2022-11-23T11:37:12;22.83;;;4.13;;
42702;SDS011;28341;52.064;4.920;2022-11-23T11:39:24;16.20;;;3.72;;
42702;SDS011;28341;52.064;4.920;2022-11-23T11:41:32;15.02;;;3.53;;
42702;SDS011;28341;52.064;4.920;2022-11-23T11:43:38;14.15;;;2.75;;
42702;SDS011;28341;52.064;4.920;2022-11-23T11:45:47;18.25;;;4.07;;
42702;SDS011;28341;52.064;4.920;2022-11-23T11:47:56;19.98;;;4.43;;
42702;SDS011;28341;52.064;4.920;2022-11-23T11:50:05;13.07;;;3.13;;
42702;SDS011;28341;52.064;4.920;2022-11-23T11:52:21;21.67;;;3.38;;
42702;SDS011;28341;52.064;4.920;2022-11-23T11:54:30;14.88;;;3.10;;
42702;SDS011;28341;52.064;4.920;2022-11-23T11:56:42;12.68;;;3.30;;
42702;SDS011;28341;52.064;4.920;2022-11-23T11:58:50;14.82;;;3.40;;
42702;SDS011;28341;52.064;4.920;2022-11-23T12:01:03;15.95;;;3.42;;
42702;SDS011;28341;52.064;4.920;2022-11-23T12:03:18;17.25;;;3.33;;
42702;SDS011;28341;52.064;4.920;2022-11-23T12:05:31;15.48;;;3.22;;
42702;SDS011;28341;52.064;4.920;2022-11-23T12:07:46;12.13;;;3.05;;
42702;SDS011;28341;52.064;4.920;2022-11-23T12:10:02;15.65;;;3.10;;
42702;SDS011;28341;52.064;4.920;2022-11-23T12:12:13;10.27;;;2.70;;
42702;SDS011;28341;52.064;4.920;2022-11-23T12:14:19;14.48;;;3.25;;
42702;SDS011;28341;52.064;4.920;2022-11-23T12:16:25;11.45;;;3.42;;
42702;SDS011;28341;52.064;4.920;2022-11-23T12:18:44;13.13;;;3.05;;
42702;SDS011;28341;52.064;4.920;2022-11-23T12:21:04;10.15;;;2.72;;
42702;SDS011;28341;52.064;4.920;2022-11-23T12:23:23;14.00;;;3.10;;
42702;SDS011;28341;52.064;4.920;2022-11-23T12:25:37;13.60;;;2.70;;
42702;SDS011;28341;52.064;4.920;2022-11-23T12:27:47;11.65;;;2.70;;
42702;SDS011;28341;52.064;4.920;2022-11-23T12:30:13;10.05;;;2.67;;
42702;SDS011;28341;52.064;4.920;2022-11-23T12:32:28;17.58;;;2.90;;
42702;SDS011;28341;52.064;4.920;2022-11-23T12:34:45;10.70;;;2.40;;
42702;SDS011;28341;52.064;4.920;2022-11-23T12:37:24;19.40;;;3.42;;
42702;SDS011;28341;52.064;4.920;2022-11-23T12:39:51;12.23;;;2.67;;
42702;SDS011;28341;52.064;4.920;2022-11-23T12:42:18;12.90;;;2.33;;